createdAt,value
2023-05-05T00:00:04.892Z,593.00
2023-05-05T00:01:04.894Z,592.00
2023-05-05T00:02:04.902Z,591.00
2023-05-05T00:03:04.920Z,589.00
2023-05-05T00:04:04.951Z,587.00
2023-05-05T00:05:04.900Z,587.00
2023-05-05T00:06:05.017Z,586.00
2023-05-05T00:07:04.987Z,585.00
2023-05-05T00:08:04.997Z,587.00
2023-05-05T00:09:05.025Z,590.00
2023-05-05T00:10:05.081Z,590.00
2023-05-05T00:11:05.063Z,591.00
2023-05-05T00:12:05.122Z,592.00
2023-05-05T00:13:05.194Z,593.00
2023-05-05T00:14:05.117Z,592.00
2023-05-05T00:15:05.127Z,592.00
2023-05-05T00:16:05.152Z,593.00
2023-05-05T00:17:05.262Z,591.00
2023-05-05T00:18:05.279Z,590.00
2023-05-05T00:19:05.201Z,591.00
2023-05-05T00:20:05.325Z,589.00
2023-05-05T00:21:05.255Z,591.00
2023-05-05T00:22:05.263Z,593.00
2023-05-05T00:23:05.382Z,592.00
2023-05-05T00:24:05.454Z,592.00
2023-05-05T00:25:05.581Z,592.00
2023-05-05T00:26:05.798Z,596.00
2023-05-05T00:27:05.664Z,594.00
2023-05-05T00:28:05.671Z,593.00
2023-05-05T00:29:05.704Z,594.00
2023-05-05T00:30:05.831Z,593.00
2023-05-05T00:31:05.773Z,593.00
2023-05-05T00:32:05.758Z,592.00
2023-05-05T00:33:05.794Z,590.00
2023-05-05T00:34:05.789Z,587.00
2023-05-05T00:35:05.822Z,586.00
2023-05-05T00:36:05.799Z,591.00
2023-05-05T00:37:05.801Z,591.00
2023-05-05T00:38:05.876Z,590.00
2023-05-05T00:39:05.990Z,591.00
2023-05-05T00:40:06.232Z,593.00
2023-05-05T00:41:06.018Z,593.00
2023-05-05T00:42:06.040Z,593.00
2023-05-05T00:43:06.069Z,594.00
2023-05-05T00:44:06.038Z,595.00
2023-05-05T00:45:06.052Z,597.00
2023-05-05T00:46:06.109Z,597.00
2023-05-05T00:47:06.191Z,595.00
2023-05-05T00:48:06.288Z,594.00
2023-05-05T00:49:06.276Z,595.00
2023-05-05T00:50:06.643Z,595.00
2023-05-05T00:51:06.272Z,591.00
2023-05-05T00:52:06.335Z,590.00
2023-05-05T00:53:06.297Z,589.00
2023-05-05T00:54:06.283Z,590.00
2023-05-05T00:55:06.316Z,593.00
2023-05-05T00:56:06.411Z,594.00
2023-05-05T00:57:06.391Z,591.00
2023-05-05T00:58:06.421Z,592.00
2023-05-05T00:59:06.431Z,590.00
2023-05-05T01:00:06.688Z,590.00
2023-05-05T01:01:06.541Z,590.00
2023-05-05T01:02:06.563Z,592.00
2023-05-05T01:03:06.659Z,593.00
2023-05-05T01:04:06.763Z,595.00
2023-05-05T01:05:06.594Z,594.00
2023-05-05T01:06:06.606Z,595.00
2023-05-05T01:07:06.732Z,597.00
2023-05-05T01:08:06.723Z,600.00
2023-05-05T01:09:06.779Z,599.00
2023-05-05T01:10:18.981Z,598.00
2023-05-05T01:11:07.797Z,596.00
2023-05-05T01:12:06.788Z,593.00
2023-05-05T01:13:06.809Z,591.00
2023-05-05T01:14:06.756Z,591.00
2023-05-05T01:15:06.759Z,591.00
2023-05-05T01:16:06.790Z,590.00
2023-05-05T01:17:06.707Z,592.00
2023-05-05T01:18:06.905Z,592.00
2023-05-05T01:19:06.680Z,588.00
2023-05-05T01:20:06.788Z,588.00
2023-05-05T01:21:06.672Z,590.00
2023-05-05T01:22:06.667Z,589.00
2023-05-05T01:23:06.652Z,589.00
2023-05-05T01:24:06.640Z,590.00
2023-05-05T01:25:06.672Z,590.00
2023-05-05T01:26:06.627Z,590.00
2023-05-05T01:27:06.646Z,589.00
2023-05-05T01:28:06.608Z,588.00
2023-05-05T01:29:06.606Z,592.00
2023-05-05T01:30:06.743Z,593.00
2023-05-05T01:31:06.595Z,592.00
2023-05-05T01:32:06.602Z,594.00
2023-05-05T01:33:06.604Z,592.00
2023-05-05T01:34:06.617Z,592.00
2023-05-05T01:35:06.626Z,593.00
2023-05-05T01:36:06.637Z,591.00
2023-05-05T01:37:06.634Z,591.00
2023-05-05T01:38:06.838Z,591.00
2023-05-05T01:39:06.696Z,594.00
2023-05-05T01:40:06.979Z,591.00
2023-05-05T01:41:06.747Z,590.00
2023-05-05T01:42:06.761Z,587.00
2023-05-05T01:43:06.797Z,589.00
2023-05-05T01:44:06.797Z,588.00
2023-05-05T01:45:06.829Z,589.00
2023-05-05T01:46:06.836Z,586.00
2023-05-05T01:47:06.815Z,585.00
2023-05-05T01:48:06.835Z,585.00
2023-05-05T01:49:06.885Z,587.00
2023-05-05T01:50:07.017Z,586.00
2023-05-05T01:51:06.931Z,586.00
2023-05-05T01:52:06.949Z,586.00
2023-05-05T01:53:06.967Z,583.00
2023-05-05T01:54:06.969Z,583.00
2023-05-05T01:55:06.989Z,584.00
2023-05-05T01:56:07.007Z,585.00
2023-05-05T01:57:06.974Z,588.00
2023-05-05T01:58:07.015Z,588.00
2023-05-05T01:59:07.051Z,588.00
2023-05-05T02:00:07.286Z,588.00
2023-05-05T02:01:07.071Z,587.00
2023-05-05T02:02:07.094Z,586.00
2023-05-05T02:03:07.181Z,586.00
2023-05-05T02:04:07.122Z,587.00
2023-05-05T02:05:07.136Z,587.00
2023-05-05T02:06:07.218Z,589.00
2023-05-05T02:07:07.208Z,589.00
2023-05-05T02:08:07.236Z,591.00
2023-05-05T02:09:07.245Z,589.00
2023-05-05T02:10:07.468Z,588.00
2023-05-05T02:11:07.282Z,589.00
2023-05-05T02:12:07.394Z,590.00
2023-05-05T02:13:07.401Z,589.00
2023-05-05T02:14:07.345Z,590.00
2023-05-05T02:15:07.363Z,587.00
2023-05-05T02:16:07.406Z,586.00
2023-05-05T02:17:07.402Z,584.00
2023-05-05T02:18:07.422Z,586.00
2023-05-05T02:19:07.460Z,587.00
2023-05-05T02:20:07.703Z,588.00
2023-05-05T02:21:07.483Z,584.00
2023-05-05T02:22:07.505Z,585.00
2023-05-05T02:23:07.540Z,584.00
2023-05-05T02:24:07.543Z,585.00
2023-05-05T02:25:07.604Z,585.00
2023-05-05T02:26:07.622Z,586.00
2023-05-05T02:27:07.634Z,585.00
2023-05-05T02:28:07.690Z,586.00
2023-05-05T02:29:07.708Z,587.00
2023-05-05T02:30:07.982Z,587.00
2023-05-05T02:31:07.714Z,584.00
2023-05-05T02:32:07.754Z,584.00
2023-05-05T02:33:07.758Z,581.00
2023-05-05T02:34:07.763Z,584.00
2023-05-05T02:35:07.794Z,584.00
2023-05-05T02:36:07.826Z,584.00
2023-05-05T02:37:07.876Z,582.00
2023-05-05T02:38:07.904Z,584.00
2023-05-05T02:39:07.910Z,584.00
2023-05-05T02:40:08.120Z,584.00
2023-05-05T02:41:07.967Z,584.00
2023-05-05T02:42:07.978Z,580.00
2023-05-05T02:43:08.054Z,579.00
2023-05-05T02:44:08.020Z,579.00
2023-05-05T02:45:08.029Z,582.00
2023-05-05T02:46:08.121Z,582.00
2023-05-05T02:47:08.094Z,583.00
2023-05-05T02:48:08.295Z,585.00
2023-05-05T02:49:08.163Z,582.00
2023-05-05T02:50:08.237Z,581.00
2023-05-05T02:51:08.197Z,580.00
2023-05-05T02:52:08.206Z,579.00
2023-05-05T02:53:08.258Z,579.00
2023-05-05T02:54:08.281Z,580.00
2023-05-05T02:55:08.287Z,579.00
2023-05-05T02:56:08.340Z,577.00
2023-05-05T02:57:08.366Z,575.00
2023-05-05T02:58:08.428Z,574.00
2023-05-05T02:59:08.399Z,573.00
2023-05-05T03:00:08.603Z,572.00
2023-05-05T03:01:08.506Z,574.00
2023-05-05T03:02:08.477Z,575.00
2023-05-05T03:03:08.586Z,577.00
2023-05-05T03:04:08.548Z,574.00
2023-05-05T03:05:08.548Z,574.00
2023-05-05T03:06:08.581Z,573.00
2023-05-05T03:07:08.644Z,572.00
2023-05-05T03:08:08.658Z,573.00
2023-05-05T03:09:08.669Z,575.00
2023-05-05T03:10:08.890Z,574.00
2023-05-05T03:11:08.735Z,572.00
2023-05-05T03:12:08.780Z,570.00
2023-05-05T03:13:08.954Z,569.00
2023-05-05T03:14:08.868Z,571.00
2023-05-05T03:15:08.847Z,571.00
2023-05-05T03:16:08.947Z,572.00
2023-05-05T03:17:08.922Z,574.00
2023-05-05T03:18:08.942Z,574.00
2023-05-05T03:19:08.961Z,573.00
2023-05-05T03:20:09.079Z,573.00
2023-05-05T03:21:09.064Z,574.00
2023-05-05T03:22:09.064Z,573.00
2023-05-05T03:23:09.071Z,575.00
2023-05-05T03:24:09.103Z,574.00
2023-05-05T03:25:09.126Z,574.00
2023-05-05T03:26:09.150Z,575.00
2023-05-05T03:27:09.178Z,573.00
2023-05-05T03:28:09.185Z,574.00
2023-05-05T03:29:09.197Z,578.00
2023-05-05T03:30:09.541Z,577.00
2023-05-05T03:31:09.273Z,581.00
2023-05-05T03:32:09.366Z,580.00
2023-05-05T03:33:09.387Z,581.00
2023-05-05T03:34:09.356Z,578.00
2023-05-05T03:35:09.353Z,578.00
2023-05-05T03:36:09.379Z,576.00
2023-05-05T03:37:09.396Z,576.00
2023-05-05T03:38:09.418Z,577.00
2023-05-05T03:39:09.450Z,576.00
2023-05-05T03:40:09.595Z,575.00
2023-05-05T03:41:09.522Z,573.00
2023-05-05T03:42:09.549Z,574.00
2023-05-05T03:43:09.566Z,572.00
2023-05-05T03:44:09.584Z,573.00
2023-05-05T03:45:09.601Z,573.00
2023-05-05T03:46:09.678Z,574.00
2023-05-05T03:47:09.702Z,575.00
2023-05-05T03:48:09.791Z,576.00
2023-05-05T03:49:09.744Z,576.00
2023-05-05T03:50:09.855Z,577.00
2023-05-05T03:51:09.800Z,576.00
2023-05-05T03:52:09.838Z,574.00
2023-05-05T03:53:09.868Z,572.00
2023-05-05T03:54:09.917Z,575.00
2023-05-05T03:55:09.939Z,578.00
2023-05-05T03:56:09.958Z,576.00
2023-05-05T03:57:09.989Z,575.00
2023-05-05T03:58:10.035Z,574.00
2023-05-05T03:59:10.075Z,575.00
2023-05-05T04:00:10.093Z,576.00
2023-05-05T04:01:10.109Z,575.00
2023-05-05T04:02:10.153Z,573.00
2023-05-05T04:03:10.408Z,573.00
2023-05-05T04:04:10.211Z,572.00
2023-05-05T04:05:10.227Z,570.00
2023-05-05T04:06:10.253Z,570.00
2023-05-05T04:07:10.268Z,573.00
2023-05-05T04:08:10.329Z,573.00
2023-05-05T04:09:10.358Z,573.00
2023-05-05T04:10:10.621Z,574.00
2023-05-05T04:11:10.394Z,574.00
2023-05-05T04:12:10.464Z,576.00
2023-05-05T04:13:10.540Z,574.00
2023-05-05T04:14:10.501Z,575.00
2023-05-05T04:15:10.522Z,575.00
2023-05-05T04:16:10.550Z,574.00
2023-05-05T04:17:10.560Z,573.00
2023-05-05T04:18:10.654Z,573.00
2023-05-05T04:19:10.968Z,575.00
2023-05-05T04:20:10.848Z,575.00
2023-05-05T04:21:10.670Z,574.00
2023-05-05T04:22:10.703Z,575.00
2023-05-05T04:23:10.731Z,573.00
2023-05-05T04:24:10.745Z,575.00
2023-05-05T04:25:10.776Z,573.00
2023-05-05T04:26:10.840Z,575.00
2023-05-05T04:27:10.871Z,571.00
2023-05-05T04:28:10.862Z,572.00
2023-05-05T04:29:10.895Z,571.00
2023-05-05T04:30:10.931Z,572.00
2023-05-05T04:31:11.022Z,571.00
2023-05-05T04:32:10.998Z,570.00
2023-05-05T04:33:11.027Z,571.00
2023-05-05T04:34:11.058Z,571.00
2023-05-05T04:35:11.058Z,574.00
2023-05-05T04:36:11.153Z,573.00
2023-05-05T04:37:11.138Z,572.00
2023-05-05T04:38:11.193Z,570.00
2023-05-05T04:39:11.230Z,569.00
2023-05-05T04:40:11.248Z,570.00
2023-05-05T04:41:11.267Z,572.00
2023-05-05T04:42:11.274Z,572.00
2023-05-05T04:43:11.315Z,570.00
2023-05-05T04:44:11.333Z,570.00
2023-05-05T04:45:11.386Z,569.00
2023-05-05T04:46:11.425Z,568.00
2023-05-05T04:47:13.212Z,568.00
2023-05-05T04:48:11.424Z,569.00
2023-05-05T04:49:11.405Z,567.00
2023-05-05T04:50:11.488Z,568.00
2023-05-05T04:51:11.394Z,567.00
2023-05-05T04:52:11.403Z,567.00
2023-05-05T04:53:11.399Z,568.00
2023-05-05T04:54:11.370Z,569.00
2023-05-05T04:55:11.367Z,569.00
2023-05-05T04:56:11.399Z,569.00
2023-05-05T04:57:11.361Z,566.00
2023-05-05T04:58:11.391Z,565.00
2023-05-05T04:59:11.332Z,566.00
2023-05-05T05:00:11.540Z,570.00
2023-05-05T05:01:11.328Z,572.00
2023-05-05T05:02:11.368Z,571.00
2023-05-05T05:03:11.360Z,570.00
2023-05-05T05:04:11.326Z,571.00
2023-05-05T05:05:11.306Z,569.00
2023-05-05T05:06:11.295Z,568.00
2023-05-05T05:07:11.271Z,566.00
2023-05-05T05:08:11.305Z,565.00
2023-05-05T05:09:11.245Z,565.00
2023-05-05T05:10:11.336Z,564.00
2023-05-05T05:11:11.256Z,564.00
2023-05-05T05:12:11.263Z,564.00
2023-05-05T05:13:12.692Z,563.00
2023-05-05T05:14:11.263Z,562.00
2023-05-05T05:15:11.224Z,563.00
2023-05-05T05:16:11.284Z,563.00
2023-05-05T05:17:11.192Z,563.00
2023-05-05T05:18:11.179Z,563.00
2023-05-05T05:19:11.202Z,565.00
2023-05-05T05:20:11.452Z,565.00
2023-05-05T05:21:11.403Z,563.00
2023-05-05T05:22:11.159Z,565.00
2023-05-05T05:23:11.233Z,568.00
2023-05-05T05:24:11.151Z,567.00
2023-05-05T05:25:11.127Z,569.00
2023-05-05T05:26:11.248Z,569.00
2023-05-05T05:27:12.012Z,571.00
2023-05-05T05:28:11.203Z,572.00
2023-05-05T05:29:11.134Z,573.00
2023-05-05T05:30:11.116Z,570.00
2023-05-05T05:31:11.169Z,569.00
2023-05-05T05:32:11.136Z,565.00
2023-05-05T05:33:11.187Z,563.00
2023-05-05T05:34:12.717Z,564.00
2023-05-05T05:35:11.139Z,567.00
2023-05-05T05:36:11.179Z,581.00
2023-05-05T05:37:11.304Z,665.00
2023-05-05T05:38:11.202Z,679.00
2023-05-05T05:39:11.230Z,739.00
2023-05-05T05:40:11.298Z,735.00
2023-05-05T05:41:11.326Z,742.00
2023-05-05T05:42:11.307Z,754.00
2023-05-05T05:43:11.343Z,792.00
2023-05-05T05:44:11.316Z,912.00
2023-05-05T05:45:11.326Z,918.00
2023-05-05T05:46:11.457Z,919.00
2023-05-05T05:47:11.770Z,934.00
2023-05-05T05:48:11.611Z,950.00
2023-05-05T05:49:11.620Z,948.00
2023-05-05T05:50:11.609Z,950.00
2023-05-05T05:51:11.649Z,955.00
2023-05-05T05:52:11.673Z,961.00
2023-05-05T05:53:11.683Z,963.00
2023-05-05T05:54:11.724Z,964.00
2023-05-05T05:55:11.854Z,966.00
2023-05-05T05:56:11.809Z,969.00
2023-05-05T05:57:11.807Z,971.00
2023-05-05T05:58:11.885Z,972.00
2023-05-05T05:59:11.802Z,970.00
2023-05-05T06:00:12.438Z,970.00
2023-05-05T06:01:11.796Z,968.00
2023-05-05T06:02:11.875Z,966.00
2023-05-05T06:03:11.914Z,965.00
2023-05-05T06:04:11.873Z,966.00
2023-05-05T06:05:11.803Z,965.00
2023-05-05T06:06:11.881Z,963.00
2023-05-05T06:07:12.414Z,960.00
2023-05-05T06:08:11.956Z,961.00
2023-05-05T06:09:11.978Z,959.00
2023-05-05T06:10:25.833Z,956.00
2023-05-05T06:11:12.954Z,956.00
2023-05-05T06:12:11.974Z,956.00
2023-05-05T06:13:12.027Z,957.00
2023-05-05T06:14:11.930Z,958.00
2023-05-05T06:15:11.930Z,958.00
2023-05-05T06:16:11.918Z,957.00
2023-05-05T06:17:11.955Z,953.00
2023-05-05T06:18:11.944Z,954.00
2023-05-05T06:19:11.989Z,953.00
2023-05-05T06:20:11.883Z,951.00
2023-05-05T06:21:11.912Z,951.00
2023-05-05T06:22:11.888Z,949.00
2023-05-05T06:23:11.878Z,954.00
2023-05-05T06:24:11.931Z,953.00
2023-05-05T06:25:11.841Z,950.00
2023-05-05T06:26:11.832Z,950.00
2023-05-05T06:27:11.836Z,949.00
2023-05-05T06:28:11.874Z,948.00
2023-05-05T06:29:12.429Z,945.00
2023-05-05T06:30:11.864Z,942.00
2023-05-05T06:31:11.886Z,941.00
2023-05-05T06:32:11.920Z,941.00
2023-05-05T06:33:11.877Z,942.00
2023-05-05T06:34:11.905Z,940.00
2023-05-05T06:35:11.987Z,938.00
2023-05-05T06:36:12.128Z,937.00
2023-05-05T06:37:12.095Z,935.00
2023-05-05T06:38:12.129Z,944.00
2023-05-05T06:39:14.024Z,1064.00
2023-05-05T06:40:12.122Z,1092.00
2023-05-05T06:41:12.079Z,1120.00
2023-05-05T06:42:12.086Z,1157.00
2023-05-05T06:43:12.051Z,1184.00
2023-05-05T06:44:12.055Z,1200.00
2023-05-05T06:45:12.048Z,1217.00
2023-05-05T06:46:12.046Z,1254.00
2023-05-05T06:47:12.453Z,1249.00
2023-05-05T06:48:14.910Z,1240.00
2023-05-05T06:49:12.037Z,1240.00
2023-05-05T06:50:12.037Z,1241.00
2023-05-05T06:51:12.010Z,1237.00
2023-05-05T06:52:12.072Z,1246.00
2023-05-05T06:53:11.992Z,1252.00
2023-05-05T06:54:11.982Z,1323.00
2023-05-05T06:55:11.978Z,1353.00
2023-05-05T06:56:11.999Z,1353.00
2023-05-05T06:57:12.021Z,1370.00
2023-05-05T06:58:12.093Z,1169.00
2023-05-05T06:59:11.998Z,961.00
2023-05-05T07:00:12.035Z,815.00
2023-05-05T07:01:11.964Z,750.00
2023-05-05T07:02:11.956Z,742.00
2023-05-05T07:03:12.071Z,897.00
2023-05-05T07:04:12.058Z,911.00
2023-05-05T07:05:11.974Z,923.00
2023-05-05T07:06:11.939Z,931.00
2023-05-05T07:07:11.956Z,948.00
2023-05-05T07:08:11.952Z,966.00
2023-05-05T07:09:11.905Z,993.00
2023-05-05T07:10:11.908Z,1002.00
2023-05-05T07:11:11.868Z,1009.00
2023-05-05T07:12:11.862Z,1026.00
2023-05-05T07:13:11.947Z,1066.00
2023-05-05T07:14:11.988Z,1090.00
2023-05-05T07:15:26.033Z,1092.00
2023-05-05T07:16:12.930Z,1101.00
2023-05-05T07:17:11.821Z,1119.00
2023-05-05T07:18:11.873Z,1132.00
2023-05-05T07:19:11.822Z,1147.00
2023-05-05T07:20:11.845Z,1172.00
2023-05-05T07:21:11.796Z,1185.00
2023-05-05T07:22:11.813Z,1193.00
2023-05-05T07:23:11.795Z,1226.00
2023-05-05T07:24:11.851Z,1230.00
2023-05-05T07:25:11.778Z,942.00
2023-05-05T07:26:11.783Z,1087.00
2023-05-05T07:27:11.763Z,1069.00
2023-05-05T07:28:11.769Z,1071.00
2023-05-05T07:29:11.990Z,1086.00
2023-05-05T07:30:14.753Z,1113.00
2023-05-05T07:31:12.861Z,1180.00
2023-05-05T07:32:11.769Z,1186.00
2023-05-05T07:33:11.752Z,1219.00
2023-05-05T07:34:11.950Z,1064.00
2023-05-05T07:35:11.729Z,1028.00
2023-05-05T07:36:11.769Z,861.00
2023-05-05T07:37:11.690Z,878.00
2023-05-05T07:38:11.716Z,965.00
2023-05-05T07:39:11.686Z,941.00
2023-05-05T07:40:11.796Z,831.00
2023-05-05T07:41:11.672Z,753.00
2023-05-05T07:42:11.676Z,728.00
2023-05-05T07:43:11.646Z,694.00
2023-05-05T07:44:11.642Z,653.00
2023-05-05T07:45:11.655Z,652.00
2023-05-05T07:46:11.749Z,658.00
2023-05-05T07:47:11.659Z,659.00
2023-05-05T07:48:11.662Z,630.00
2023-05-05T07:49:11.672Z,608.00
2023-05-05T07:50:11.755Z,593.00
2023-05-05T07:51:11.755Z,589.00
2023-05-05T07:52:11.717Z,587.00
2023-05-05T07:53:14.917Z,585.00
2023-05-05T07:54:11.693Z,580.00
2023-05-05T07:55:11.708Z,573.00
2023-05-05T07:56:11.674Z,567.00
2023-05-05T07:57:11.650Z,562.00
2023-05-05T07:58:11.682Z,560.00
2023-05-05T07:59:11.684Z,560.00
2023-05-05T08:00:11.776Z,560.00
2023-05-05T08:01:11.627Z,562.00
2023-05-05T08:02:11.767Z,562.00
2023-05-05T08:03:12.300Z,557.00
2023-05-05T08:04:11.678Z,551.00
2023-05-05T08:05:11.704Z,542.00
2023-05-05T08:06:11.612Z,536.00
2023-05-05T08:07:11.580Z,536.00
2023-05-05T08:08:11.595Z,538.00
2023-05-05T08:09:11.656Z,549.00
2023-05-05T08:10:11.584Z,571.00
2023-05-05T08:11:11.575Z,586.00
2023-05-05T08:12:11.976Z,602.00
2023-05-05T08:13:11.556Z,639.00
2023-05-05T08:14:11.533Z,660.00
2023-05-05T08:15:11.656Z,674.00
2023-05-05T08:16:11.534Z,682.00
2023-05-05T08:17:11.528Z,692.00
2023-05-05T08:18:11.593Z,731.00
2023-05-05T08:19:21.542Z,732.00
2023-05-05T08:20:12.489Z,733.00
2023-05-05T08:21:11.484Z,809.00
2023-05-05T08:22:11.494Z,813.00
2023-05-05T08:23:11.570Z,852.00
2023-05-05T08:24:11.471Z,795.00
2023-05-05T08:25:11.477Z,778.00
2023-05-05T08:26:11.447Z,684.00
2023-05-05T08:27:11.460Z,724.00
2023-05-05T08:28:11.490Z,735.00
2023-05-05T08:29:11.533Z,749.00
2023-05-05T08:30:12.020Z,746.00
2023-05-05T08:31:11.445Z,745.00
2023-05-05T08:32:11.417Z,740.00
2023-05-05T08:33:11.459Z,736.00
2023-05-05T08:34:11.517Z,733.00
2023-05-05T08:35:11.999Z,729.00
2023-05-05T08:36:11.429Z,730.00
2023-05-05T08:37:11.395Z,728.00
2023-05-05T08:38:11.486Z,727.00
2023-05-05T08:39:11.392Z,725.00
2023-05-05T08:40:11.391Z,726.00
2023-05-05T08:41:11.392Z,727.00
2023-05-05T08:42:11.400Z,734.00
2023-05-05T08:43:11.346Z,849.00
2023-05-05T08:44:11.532Z,894.00
2023-05-05T08:45:11.597Z,935.00
2023-05-05T08:46:11.375Z,977.00
2023-05-05T08:47:11.366Z,998.00
2023-05-05T08:48:11.340Z,1031.00
2023-05-05T08:49:11.287Z,1092.00
2023-05-05T08:50:11.334Z,1110.00
2023-05-05T08:51:11.292Z,1157.00
2023-05-05T08:52:11.349Z,1185.00
2023-05-05T08:53:11.386Z,1226.00
2023-05-05T08:54:11.287Z,1246.00
2023-05-05T08:55:11.255Z,1285.00
2023-05-05T08:56:11.227Z,1305.00
2023-05-05T08:57:11.253Z,1330.00
2023-05-05T08:58:11.233Z,1355.00
2023-05-05T08:59:11.264Z,1393.00
2023-05-05T09:00:11.366Z,1412.00
2023-05-05T09:01:11.433Z,1430.00
2023-05-05T09:02:11.487Z,1447.00
2023-05-05T09:03:11.751Z,1483.00
2023-05-05T09:04:11.536Z,1546.00
2023-05-05T09:05:11.563Z,1553.00
2023-05-05T09:06:11.673Z,1558.00
2023-05-05T09:07:11.681Z,1575.00
2023-05-05T09:08:11.716Z,1591.00
2023-05-05T09:09:11.723Z,1595.00
2023-05-05T09:10:11.825Z,1605.00
2023-05-05T09:11:11.805Z,1594.00
2023-05-05T09:12:11.850Z,1590.00
2023-05-05T09:13:11.881Z,1557.00
2023-05-05T09:14:11.886Z,1540.00
2023-05-05T09:15:11.932Z,1544.00
2023-05-05T09:16:11.978Z,1590.00
2023-05-05T09:17:11.967Z,1600.00
2023-05-05T09:18:12.054Z,1627.00
2023-05-05T09:19:12.048Z,1648.00
2023-05-05T09:20:12.046Z,1662.00
2023-05-05T09:21:12.050Z,1691.00
2023-05-05T09:22:12.149Z,1716.00
2023-05-05T09:23:12.130Z,1759.00
2023-05-05T09:24:12.225Z,1782.00
2023-05-05T09:25:12.173Z,1864.00
2023-05-05T09:26:12.192Z,1841.00
2023-05-05T09:27:12.201Z,1840.00
2023-05-05T09:28:12.210Z,1855.00
2023-05-05T09:29:12.199Z,1879.00
2023-05-05T09:30:12.204Z,1875.00
2023-05-05T09:31:12.401Z,1502.00
2023-05-05T09:32:12.225Z,1524.00
2023-05-05T09:33:12.300Z,1432.00
2023-05-05T09:34:12.241Z,1487.00
2023-05-05T09:35:12.384Z,1571.00
2023-05-05T09:36:12.282Z,1557.00
2023-05-05T09:37:12.249Z,1564.00
2023-05-05T09:38:12.498Z,1569.00
2023-05-05T09:39:12.271Z,1582.00
2023-05-05T09:40:12.273Z,1606.00
2023-05-05T09:41:12.298Z,1606.00
2023-05-05T09:42:12.247Z,1581.00
2023-05-05T09:43:12.320Z,1562.00
2023-05-05T09:44:12.521Z,1546.00
2023-05-05T09:45:12.277Z,1512.00
2023-05-05T09:46:12.295Z,1508.00
2023-05-05T09:47:25.907Z,1498.00
2023-05-05T09:48:13.301Z,1495.00
2023-05-05T09:49:12.331Z,1487.00
2023-05-05T09:50:12.284Z,1480.00
2023-05-05T09:51:12.359Z,1467.00
2023-05-05T09:52:12.267Z,1459.00
2023-05-05T09:53:12.252Z,1447.00
2023-05-05T09:54:12.284Z,1436.00
2023-05-05T09:55:12.251Z,1423.00
2023-05-05T09:56:12.253Z,1408.00
2023-05-05T09:57:12.255Z,1396.00
2023-05-05T09:58:12.271Z,1367.00
2023-05-05T09:59:12.229Z,1355.00
2023-05-05T10:00:12.265Z,1349.00
2023-05-05T10:01:12.250Z,1343.00
2023-05-05T10:02:12.220Z,1327.00
2023-05-05T10:03:12.213Z,1316.00
2023-05-05T10:04:12.183Z,1308.00
2023-05-05T10:05:12.262Z,1294.00
2023-05-05T10:06:12.304Z,1282.00
2023-05-05T10:07:12.307Z,1271.00
2023-05-05T10:08:12.433Z,1261.00
2023-05-05T10:09:12.421Z,1243.00
2023-05-05T10:10:12.530Z,1229.00
2023-05-05T10:11:12.494Z,1219.00
2023-05-05T10:12:12.566Z,1211.00
2023-05-05T10:13:12.707Z,1200.00
2023-05-05T10:14:12.701Z,1187.00
2023-05-05T10:15:12.722Z,1169.00
2023-05-05T10:16:12.781Z,1162.00
2023-05-05T10:17:12.797Z,1172.00
2023-05-05T10:18:12.983Z,1081.00
2023-05-05T10:19:12.932Z,1096.00
2023-05-05T10:20:12.939Z,1112.00
2023-05-05T10:21:12.945Z,1107.00
2023-05-05T10:22:12.996Z,1045.00
2023-05-05T10:23:13.056Z,1060.00
2023-05-05T10:24:13.083Z,1099.00
2023-05-05T10:25:13.050Z,1182.00
2023-05-05T10:26:13.071Z,1325.00
2023-05-05T10:27:13.117Z,1301.00
2023-05-05T10:28:13.520Z,1117.00
2023-05-05T10:29:13.087Z,1102.00
2023-05-05T10:30:13.098Z,1004.00
2023-05-05T10:31:24.176Z,1131.00
2023-05-05T10:32:40.826Z,913.00
2023-05-05T10:33:30.280Z,923.00
2023-05-05T10:34:14.131Z,981.00
2023-05-05T10:35:13.093Z,1011.00
2023-05-05T10:36:13.118Z,950.00
2023-05-05T10:37:13.107Z,869.00
2023-05-05T10:38:13.096Z,907.00
2023-05-05T10:39:13.077Z,1021.00
2023-05-05T10:40:13.048Z,1050.00
2023-05-05T10:41:13.043Z,867.00
2023-05-05T10:42:13.159Z,786.00
2023-05-05T10:43:13.524Z,791.00
2023-05-05T10:44:13.027Z,899.00
2023-05-05T10:45:13.046Z,927.00
2023-05-05T10:46:13.102Z,968.00
2023-05-05T10:47:13.156Z,1065.00
2023-05-05T10:48:13.157Z,875.00
2023-05-05T10:49:13.513Z,810.00
2023-05-05T10:50:13.059Z,792.00
2023-05-05T10:51:15.426Z,805.00
2023-05-05T10:52:13.974Z,864.00
2023-05-05T10:53:12.958Z,914.00
2023-05-05T10:54:13.074Z,944.00
2023-05-05T10:55:13.098Z,947.00
2023-05-05T10:56:12.935Z,719.00
2023-05-05T10:57:12.962Z,674.00
2023-05-05T10:58:12.977Z,645.00
2023-05-05T10:59:12.912Z,599.00
2023-05-05T11:00:15.035Z,587.00
2023-05-05T11:01:13.002Z,588.00
2023-05-05T11:02:13.048Z,592.00
2023-05-05T11:03:13.157Z,592.00
2023-05-05T11:04:13.148Z,568.00
2023-05-05T11:05:13.571Z,558.00
2023-05-05T11:06:13.257Z,550.00
2023-05-05T11:07:15.019Z,539.00
2023-05-05T11:08:13.426Z,534.00
2023-05-05T11:09:13.479Z,542.00
2023-05-05T11:10:13.509Z,598.00
2023-05-05T11:11:13.536Z,626.00
2023-05-05T11:12:13.685Z,584.00
2023-05-05T11:13:13.663Z,585.00
2023-05-05T11:14:13.901Z,580.00
2023-05-05T11:15:13.722Z,583.00
2023-05-05T11:16:13.794Z,589.00
2023-05-05T11:17:13.918Z,665.00
2023-05-05T11:18:13.875Z,683.00
2023-05-05T11:19:13.850Z,685.00
2023-05-05T11:20:13.973Z,686.00
2023-05-05T11:21:14.008Z,692.00
2023-05-05T11:22:13.997Z,692.00
2023-05-05T11:23:16.567Z,695.00
2023-05-05T11:24:14.363Z,696.00
2023-05-05T11:25:14.404Z,698.00
2023-05-05T11:26:14.415Z,698.00
2023-05-05T11:27:14.459Z,700.00
2023-05-05T11:28:14.583Z,703.00
2023-05-05T11:29:14.588Z,702.00
2023-05-05T11:30:14.740Z,702.00
2023-05-05T11:31:14.677Z,702.00
2023-05-05T11:32:14.690Z,704.00
2023-05-05T11:33:14.699Z,702.00
2023-05-05T11:34:14.725Z,702.00
2023-05-05T11:35:14.718Z,701.00
2023-05-05T11:36:14.700Z,702.00
2023-05-05T11:37:14.701Z,702.00
2023-05-05T11:38:14.711Z,705.00
2023-05-05T11:39:14.703Z,705.00
2023-05-05T11:40:14.703Z,704.00
2023-05-05T11:41:14.712Z,704.00
2023-05-05T11:42:14.710Z,704.00
2023-05-05T11:43:14.694Z,705.00
2023-05-05T11:44:14.719Z,703.00
2023-05-05T11:45:14.734Z,704.00
2023-05-05T11:46:14.789Z,704.00
2023-05-05T11:47:14.741Z,708.00
2023-05-05T11:48:14.767Z,706.00
2023-05-05T11:49:14.756Z,706.00
2023-05-05T11:50:14.763Z,705.00
2023-05-05T11:51:14.751Z,704.00
2023-05-05T11:52:14.746Z,705.00
2023-05-05T11:53:14.785Z,703.00
2023-05-05T11:54:14.761Z,703.00
2023-05-05T11:55:14.804Z,702.00
2023-05-05T11:56:14.768Z,699.00
2023-05-05T11:57:14.803Z,699.00
2023-05-05T11:58:14.817Z,700.00
2023-05-05T11:59:14.821Z,701.00
2023-05-05T12:00:14.830Z,701.00
2023-05-05T12:01:14.872Z,701.00
2023-05-05T12:02:14.993Z,698.00
2023-05-05T12:03:14.977Z,698.00
2023-05-05T12:04:14.983Z,696.00
2023-05-05T12:05:14.909Z,694.00
2023-05-05T12:06:14.924Z,693.00
2023-05-05T12:07:14.979Z,692.00
2023-05-05T12:08:14.992Z,691.00
2023-05-05T12:09:14.959Z,691.00
2023-05-05T12:10:15.011Z,691.00
2023-05-05T12:11:15.005Z,691.00
2023-05-05T12:12:15.022Z,691.00
2023-05-05T12:13:15.096Z,690.00
2023-05-05T12:14:15.069Z,690.00
2023-05-05T12:15:15.096Z,691.00
2023-05-05T12:16:15.121Z,689.00
2023-05-05T12:17:15.130Z,690.00
2023-05-05T12:18:15.203Z,687.00
2023-05-05T12:19:15.150Z,689.00
2023-05-05T12:20:15.172Z,690.00
2023-05-05T12:21:15.207Z,689.00
2023-05-05T12:22:15.210Z,688.00
2023-05-05T12:23:15.587Z,686.00